Time;durP1;ratioP1;P1;durP2;ratioP2;P2;SDS_P1;SDS_P2;PMS_P1;PMS_P2;Temp;Humidity;BMP_temperature;BMP_pressure;BME280_temperature;BME280_humidity;BME280_pressure;Samples;Min_cycle;Max_cycle;Signal;HPM_P1;HPM_P2
2022/09/02 00:01:55;;;;;;;1.25;0.80;;;20.40;63.40;;;;;;4940390;29;20177;-72
2022/09/02 00:04:24;;;;;;;1.73;1.05;;;20.40;63.50;;;;;;4943035;29;20177;-73
2022/09/02 00:06:53;;;;;;;1.80;1.20;;;20.30;63.70;;;;;;4944761;29;20201;-70
2022/09/02 00:09:22;;;;;;;1.40;1.00;;;20.30;63.70;;;;;;4955051;29;20205;-69
2022/09/02 00:11:49;;;;;;;1.15;1.00;;;20.30;63.80;;;;;;4957773;29;20169;-71
2022/09/02 00:14:28;;;;;;;1.20;0.80;;;20.30;63.90;;;;;;4942141;29;20205;-70
2022/09/02 00:16:54;;;;;;;1.20;1.00;;;20.30;64.10;;;;;;4939092;29;20241;-71
2022/09/02 00:19:23;;;;;;;1.80;0.90;;;20.30;64.00;;;;;;4941917;29;20213;-71
2022/09/02 00:21:52;;;;;;;1.40;0.90;;;20.30;64.10;;;;;;4941444;29;20205;-71
2022/09/02 00:24:18;;;;;;;1.52;0.90;;;20.30;64.30;;;;;;4940380;29;20181;-72
2022/09/02 00:26:45;;;;;;;1.70;1.00;;;20.30;64.20;;;;;;4941017;29;20185;-71
2022/09/02 00:29:13;;;;;;;3.38;1.20;;;20.30;64.20;;;;;;4944296;29;20208;-71
2022/09/02 00:31:42;;;;;;;1.17;0.90;;;20.40;64.40;;;;;;4948909;29;20259;-71
2022/09/02 00:34:08;;;;;;;1.92;0.95;;;20.30;64.40;;;;;;4939489;29;20169;-71
2022/09/02 00:36:39;;;;;;;1.23;0.82;;;20.30;64.40;;;;;;4938042;29;20189;-71
2022/09/02 00:39:07;;;;;;;1.33;1.00;;;20.30;64.50;;;;;;4932330;29;20184;-71
2022/09/02 00:41:41;;;;;;;2.53;0.90;;;20.30;64.40;;;;;;4950483;29;20196;-69
2022/09/02 00:44:11;;;;;;;1.48;1.10;;;20.30;64.60;;;;;;4934254;29;20212;-71
2022/09/02 00:46:40;;;;;;;1.15;0.88;;;20.30;64.60;;;;;;4942350;29;20201;-72
2022/09/02 00:49:25;;;;;;;2.05;1.10;;;20.30;64.50;;;;;;4950221;29;20221;-71
2022/09/02 00:51:53;;;;;;;1.08;0.90;;;20.30;64.90;;;;;;4931552;29;20177;-71
2022/09/02 00:54:24;;;;;;;1.33;0.77;;;20.30;64.60;;;;;;4941969;29;20174;-71
2022/09/02 00:56:50;;;;;;;1.33;0.80;;;20.30;64.70;;;;;;4932810;29;20205;-69
2022/09/02 00:59:45;;;;;;;0.88;0.75;;;20.30;64.80;;;;;;4931025;29;20228;-72
2022/09/02 01:02:14;;;;;;;0.75;0.70;;;20.30;65.40;;;;;;4937000;29;20649;-69
2022/09/02 01:04:45;;;;;;;2.72;0.80;;;20.30;64.80;;;;;;4931460;29;20261;-70
2022/09/02 01:07:14;;;;;;;1.17;0.80;;;20.20;64.90;;;;;;4942498;29;20216;-70
2022/09/02 01:09:40;;;;;;;1.00;0.85;;;20.20;64.90;;;;;;4943789;29;20181;-70
2022/09/02 01:12:07;;;;;;;2.40;0.77;;;20.20;65.10;;;;;;4955847;29;20170;-71
2022/09/02 01:14:37;;;;;;;1.85;0.98;;;20.20;65.20;;;;;;4943095;29;20320;-71
2022/09/02 01:17:06;;;;;;;1.35;1.00;;;20.20;65.50;;;;;;4936375;29;20206;-71
2022/09/02 01:19:41;;;;;;;1.08;0.90;;;20.20;65.40;;;;;;4939635;29;20204;-70
2022/09/02 01:22:21;;;;;;;1.08;0.90;;;20.10;65.60;;;;;;4937968;29;20180;-71
2022/09/02 01:24:47;;;;;;;1.00;0.82;;;20.10;65.80;;;;;;4939286;29;20197;-71
2022/09/02 01:27:18;;;;;;;1.25;0.75;;;20.10;65.50;;;;;;4940262;29;20205;-71
2022/09/02 01:29:54;;;;;;;0.98;0.85;;;20.10;65.80;;;;;;4956294;29;20182;-70
2022/09/02 01:32:20;;;;;;;1.35;1.00;;;20.00;65.80;;;;;;4954893;29;20232;-70
2022/09/02 01:34:47;;;;;;;1.05;0.90;;;20.00;65.70;;;;;;4957726;29;20269;-70
2022/09/02 01:37:13;;;;;;;1.10;1.00;;;20.00;65.80;;;;;;4939633;29;20393;-71
2022/09/02 01:39:41;;;;;;;0.93;0.90;;;20.00;65.90;;;;;;4959550;28;20227;-70
2022/09/02 01:42:09;;;;;;;1.15;0.70;;;20.00;66.00;;;;;;4957630;29;20181;-70
2022/09/02 01:44:42;;;;;;;1.75;1.00;;;20.00;66.00;;;;;;4943463;29;20181;-70
2022/09/02 01:47:23;;;;;;;1.27;0.95;;;19.90;66.10;;;;;;4941855;29;20201;-69
2022/09/02 01:49:50;;;;;;;1.48;1.00;;;19.90;66.50;;;;;;4933830;29;20204;-70
2022/09/02 01:52:16;;;;;;;1.30;0.95;;;19.90;66.30;;;;;;4940396;29;20208;-70
2022/09/02 01:54:43;;;;;;;1.15;0.82;;;19.80;66.30;;;;;;4939088;29;20177;-70
2022/09/02 01:57:09;;;;;;;1.80;0.85;;;19.80;66.40;;;;;;4935627;29;20221;-70
2022/09/02 01:59:35;;;;;;;2.80;0.90;;;19.80;66.50;;;;;;4940184;29;20209;-70
2022/09/02 02:02:03;;;;;;;1.27;0.90;;;19.80;66.60;;;;;;4942286;29;20221;-71
2022/09/02 02:04:29;;;;;;;2.22;0.70;;;19.70;66.50;;;;;;4932739;29;20191;-69
2022/09/02 02:06:55;;;;;;;1.10;0.85;;;19.70;66.60;;;;;;4941386;29;20169;-69
2022/09/02 02:09:22;;;;;;;1.50;0.88;;;19.70;66.70;;;;;;4927991;29;20300;-71
2022/09/02 02:11:48;;;;;;;1.17;0.90;;;19.60;66.70;;;;;;4941600;29;20197;-70
2022/09/02 02:14:14;;;;;;;1.77;0.80;;;19.70;66.90;;;;;;4936333;29;20205;-71
2022/09/02 02:16:40;;;;;;;1.00;0.88;;;19.60;67.00;;;;;;4938590;29;20188;-70
2022/09/02 02:19:05;;;;;;;1.25;0.98;;;19.60;67.10;;;;;;4936391;29;20182;-71
2022/09/02 02:21:34;;;;;;;1.60;0.80;;;19.60;67.30;;;;;;4945983;29;20212;-72
2022/09/02 02:24:02;;;;;;;1.05;0.88;;;19.50;67.20;;;;;;4939206;29;20190;-70
2022/09/02 02:26:31;;;;;;;1.20;0.73;;;19.50;67.30;;;;;;4939379;29;20178;-70
2022/09/02 02:28:57;;;;;;;1.20;1.00;;;19.50;67.50;;;;;;4938767;29;20237;-70
2022/09/02 02:31:25;;;;;;;1.67;1.00;;;19.50;67.60;;;;;;4955822;28;20353;-70
2022/09/02 02:33:53;;;;;;;1.00;0.90;;;19.40;67.70;;;;;;4937047;29;20184;-70
2022/09/02 02:36:21;;;;;;;1.38;1.00;;;19.40;67.70;;;;;;4931833;29;20198;-71
2022/09/02 02:38:47;;;;;;;1.55;0.93;;;19.30;67.70;;;;;;4940401;29;20181;-70
2022/09/02 02:41:14;;;;;;;2.28;1.10;;;19.30;67.90;;;;;;4938585;29;20184;-70
2022/09/02 02:43:40;;;;;;;1.17;0.90;;;19.20;68.00;;;;;;4950493;29;20201;-70
2022/09/02 02:46:06;;;;;;;1.20;0.85;;;19.20;68.00;;;;;;4933517;29;20193;-70
2022/09/02 02:48:33;;;;;;;1.70;1.23;;;19.20;68.30;;;;;;4936449;29;20217;-70
2022/09/02 02:51:01;;;;;;;2.20;0.95;;;19.10;68.30;;;;;;4938452;29;20208;-71
2022/09/02 02:53:28;;;;;;;3.05;1.50;;;19.10;68.50;;;;;;4927372;29;20244;-71
2022/09/02 02:55:54;;;;;;;4.53;1.30;;;19.10;68.60;;;;;;4954165;29;20177;-70
2022/09/02 02:58:22;;;;;;;1.88;1.20;;;19.00;68.60;;;;;;4952955;29;20204;-69
2022/09/02 03:00:51;;;;;;;1.27;0.98;;;19.00;68.80;;;;;;4953124;29;20182;-70
2022/09/02 03:03:18;;;;;;;1.40;1.02;;;18.90;68.80;;;;;;4932642;29;20530;-68
2022/09/02 03:05:46;;;;;;;1.13;0.88;;;18.90;69.00;;;;;;4938064;29;20205;-69
2022/09/02 03:08:19;;;;;;;0.80;0.77;;;18.80;69.20;;;;;;4953077;29;20284;-68
2022/09/02 03:10:52;;;;;;;2.80;0.90;;;18.80;69.60;;;;;;4934864;29;20235;-70
2022/09/02 03:13:21;;;;;;;1.10;0.80;;;18.70;69.30;;;;;;4936055;29;20170;-70
2022/09/02 03:15:47;;;;;;;1.00;0.80;;;18.70;69.40;;;;;;4940854;29;20196;-70
2022/09/02 03:18:13;;;;;;;1.52;0.98;;;18.60;69.70;;;;;;4937331;29;20228;-68
2022/09/02 03:20:41;;;;;;;1.70;0.88;;;18.60;69.80;;;;;;4937786;29;20267;-67
2022/09/02 03:23:08;;;;;;;1.48;0.80;;;18.60;70.00;;;;;;4944231;29;20193;-70
2022/09/02 03:25:34;;;;;;;1.00;0.90;;;18.60;70.30;;;;;;4936690;29;20209;-69
2022/09/02 03:28:01;;;;;;;1.45;1.10;;;18.50;70.40;;;;;;4955597;29;20193;-71
2022/09/02 03:30:29;;;;;;;1.35;1.05;;;18.50;70.50;;;;;;4955204;29;20210;-70
2022/09/02 03:33:02;;;;;;;3.08;1.48;;;18.50;70.90;;;;;;4940516;29;20212;-70
2022/09/02 03:35:29;;;;;;;2.83;1.50;;;18.50;71.40;;;;;;4942913;29;20188;-68
2022/09/02 03:37:54;;;;;;;2.35;1.40;;;18.50;71.20;;;;;;4953359;29;20188;-70
2022/09/02 03:40:27;;;;;;;2.33;1.60;;;18.50;71.30;;;;;;4953122;29;20205;-70
2022/09/02 03:42:56;;;;;;;3.22;2.13;;;18.50;72.00;;;;;;4937413;29;20204;-71
2022/09/02 03:45:22;;;;;;;2.33;1.85;;;18.50;71.60;;;;;;4930914;29;20243;-71
2022/09/02 03:47:53;;;;;;;2.00;1.58;;;18.50;71.70;;;;;;4949953;29;20296;-70
2022/09/02 03:50:40;;;;;;;1.98;1.58;;;18.50;71.90;;;;;;4939359;29;20206;-69
2022/09/02 03:53:06;;;;;;;7.40;5.63;;;18.50;73.00;;;;;;4950211;29;20207;-70
2022/09/02 03:55:33;;;;;;;2.20;2.00;;;18.50;72.10;;;;;;4952610;29;20180;-71
2022/09/02 03:57:58;;;;;;;1.88;1.60;;;18.50;72.30;;;;;;4952416;29;20265;-70
2022/09/02 04:00:30;;;;;;;2.03;1.30;;;18.50;72.30;;;;;;4936401;29;20305;-70
2022/09/02 04:03:00;;;;;;;2.00;1.60;;;18.50;72.60;;;;;;4937587;29;20256;-71
2022/09/02 04:05:26;;;;;;;5.47;4.07;;;18.50;72.80;;;;;;4937090;29;20180;-72
2022/09/02 04:07:52;;;;;;;4.60;3.88;;;18.40;72.70;;;;;;4936851;29;20212;-71
2022/09/02 04:10:20;;;;;;;3.10;2.75;;;18.40;73.20;;;;;;4938930;29;20178;-72
2022/09/02 04:12:48;;;;;;;2.40;1.98;;;18.40;73.40;;;;;;4934327;29;20192;-71
2022/09/02 04:15:14;;;;;;;2.50;1.85;;;18.40;73.20;;;;;;4936792;29;20205;-71
2022/09/02 04:21:14;;;;;;;2.72;1.95;;;18.30;74.40;;;;;;4937732;29;20291;-70
2022/09/02 04:23:43;;;;;;;2.15;1.55;;;18.30;74.30;;;;;;4937587;29;20218;-77
2022/09/02 04:26:12;;;;;;;1.63;1.20;;;18.30;74.60;;;;;;4950190;29;20280;-77
2022/09/02 04:28:41;;;;;;;3.90;1.27;;;18.20;73.90;;;;;;4952494;29;20279;-77
2022/09/02 04:31:09;;;;;;;2.22;1.33;;;18.20;73.60;;;;;;4953182;29;20177;-77
2022/09/02 04:33:35;;;;;;;5.57;4.13;;;18.20;73.90;;;;;;4953042;29;20196;-77
2022/09/02 04:36:08;;;;;;;5.43;4.25;;;18.20;74.10;;;;;;4936875;29;20197;-76
2022/09/02 04:38:36;;;;;;;3.17;2.70;;;18.20;74.70;;;;;;4953038;29;20181;-78
2022/09/02 04:41:27;;;;;;;3.70;2.67;;;18.20;74.40;;;;;;4952221;29;20192;-76
2022/09/02 04:43:55;;;;;;;3.70;2.80;;;18.20;75.90;;;;;;4952491;29;20192;-71
2022/09/02 04:46:21;;;;;;;2.83;2.20;;;18.20;74.70;;;;;;4955813;29;20189;-71
2022/09/02 04:48:47;;;;;;;3.30;1.80;;;18.20;74.70;;;;;;4951524;29;20235;-69
2022/09/02 04:51:15;;;;;;;12.30;8.45;;;18.20;74.80;;;;;;4967485;28;20249;-69
2022/09/02 04:53:47;;;;;;;11.73;9.18;;;18.20;75.10;;;;;;4942417;29;20221;-69
2022/09/02 04:56:17;;;;;;;6.75;5.50;;;18.20;75.10;;;;;;4943276;29;20252;-68
2022/09/02 04:58:45;;;;;;;4.65;3.50;;;18.20;75.40;;;;;;4925974;29;20185;-74
2022/09/02 05:01:14;;;;;;;3.80;2.38;;;18.20;75.50;;;;;;4960297;28;20192;-75
2022/09/02 05:03:44;;;;;;;2.80;1.95;;;18.20;75.70;;;;;;4933149;29;20244;-77
2022/09/02 05:06:12;;;;;;;1.95;1.45;;;18.10;75.50;;;;;;4943207;29;20177;-77
2022/09/02 05:08:40;;;;;;;1.60;1.40;;;18.10;75.70;;;;;;4945255;29;20261;-77
2022/09/02 05:11:20;;;;;;;1.60;1.20;;;18.10;75.60;;;;;;4956558;29;20211;-76
2022/09/02 05:13:50;;;;;;;1.73;1.23;;;18.10;76.40;;;;;;4946611;29;20189;-75
2022/09/02 05:16:17;;;;;;;2.20;1.20;;;18.10;76.30;;;;;;4960818;29;20181;-74
2022/09/02 05:18:42;;;;;;;2.42;1.40;;;18.10;76.40;;;;;;4962689;29;20201;-76
2022/09/02 05:21:10;;;;;;;1.80;1.23;;;18.10;76.60;;;;;;4961276;29;20173;-75
2022/09/02 05:23:36;;;;;;;1.63;1.50;;;18.10;76.90;;;;;;4959384;29;20196;-77
2022/09/02 05:26:04;;;;;;;1.83;1.63;;;18.10;76.90;;;;;;4963470;29;20464;-77
2022/09/02 05:28:29;;;;;;;2.38;1.40;;;18.10;77.30;;;;;;4963299;29;20228;-77
2022/09/02 05:31:04;;;;;;;2.00;1.60;;;18.00;77.20;;;;;;4945198;28;20240;-76
2022/09/02 05:33:30;;;;;;;1.40;1.20;;;18.10;77.50;;;;;;4945038;29;20273;-78
2022/09/02 05:36:01;;;;;;;1.95;1.45;;;18.10;77.70;;;;;;4958428;29;20205;-72
2022/09/02 05:38:29;;;;;;;2.50;1.40;;;18.10;78.30;;;;;;4943989;29;20229;-77
2022/09/02 05:40:58;;;;;;;1.30;1.10;;;18.10;78.00;;;;;;4945477;29;20200;-78
2022/09/02 05:43:26;;;;;;;1.73;1.23;;;18.10;78.10;;;;;;4958778;29;20339;-78
2022/09/02 05:45:52;;;;;;;4.93;1.30;;;18.10;78.00;;;;;;4967208;29;20177;-77
2022/09/02 05:51:05;;;;;;;1.42;1.00;;;18.20;78.90;;;;;;4945583;29;20196;-77
2022/09/02 05:53:31;;;;;;;1.35;1.17;;;18.20;78.80;;;;;;4946215;29;20196;-78
2022/09/02 05:55:57;;;;;;;2.03;1.10;;;18.30;79.10;;;;;;4964341;29;20181;-77
2022/09/02 05:58:23;;;;;;;1.40;1.20;;;18.30;79.10;;;;;;4961285;29;20240;-76
2022/09/02 06:00:49;;;;;;;2.20;1.58;;;18.40;80.00;;;;;;4953949;29;20272;-75
2022/09/02 06:03:18;;;;;;;2.90;1.80;;;18.40;79.40;;;;;;4958759;29;20224;-75
2022/09/02 06:05:56;;;;;;;1.75;1.40;;;18.40;79.40;;;;;;4958957;29;20185;-76
2022/09/02 06:08:23;;;;;;;2.38;1.33;;;18.50;80.70;;;;;;4957490;29;20216;-77
2022/09/02 06:10:51;;;;;;;2.22;1.25;;;18.50;79.50;;;;;;4944890;29;20228;-74
2022/09/02 06:13:21;;;;;;;2.55;1.30;;;18.60;79.70;;;;;;4946945;29;20184;-74
2022/09/02 06:15:50;;;;;;;1.23;1.00;;;18.60;79.80;;;;;;4938996;29;20173;-77
2022/09/02 06:18:20;;;;;;;1.27;1.05;;;18.60;80.00;;;;;;4961760;29;20205;-77
2022/09/02 06:20:47;;;;;;;1.77;1.23;;;18.70;80.90;;;;;;4944560;29;20177;-76
2022/09/02 06:23:18;;;;;;;1.73;1.00;;;18.70;80.20;;;;;;4945383;29;20178;-77
2022/09/02 06:25:48;;;;;;;1.95;1.10;;;18.80;80.40;;;;;;4941712;29;20320;-76
2022/09/02 06:28:14;;;;;;;1.90;1.15;;;18.90;80.70;;;;;;4959162;29;20194;-74
2022/09/02 06:30:42;;;;;;;3.97;1.27;;;18.90;80.60;;;;;;4949474;29;20227;-76
2022/09/02 06:33:08;;;;;;;1.90;1.00;;;18.90;80.80;;;;;;4944918;29;20233;-77
2022/09/02 06:35:40;;;;;;;1.63;1.25;;;19.00;80.90;;;;;;4945520;29;20395;-76
2022/09/02 06:38:06;;;;;;;1.27;1.02;;;19.00;81.30;;;;;;4942467;29;20189;-73
2022/09/02 06:40:34;;;;;;;1.45;1.02;;;19.10;81.20;;;;;;4931282;29;20185;-77
2022/09/02 06:43:02;;;;;;;1.45;1.10;;;19.20;81.50;;;;;;4933356;29;20214;-75
2022/09/02 06:45:30;;;;;;;2.25;1.33;;;19.20;81.40;;;;;;4938100;29;20182;-76
2022/09/02 06:47:58;;;;;;;1.85;1.00;;;19.30;81.70;;;;;;4944426;29;20209;-77
2022/09/02 06:50:23;;;;;;;2.40;1.00;;;19.40;82.40;;;;;;4955276;29;20192;-77
2022/09/02 06:52:49;;;;;;;1.25;1.00;;;19.50;82.30;;;;;;4933218;29;20169;-77
2022/09/02 06:55:17;;;;;;;2.40;1.17;;;19.50;82.00;;;;;;4943703;29;20185;-72
2022/09/02 06:57:42;;;;;;;2.13;1.10;;;19.60;82.20;;;;;;4931089;29;20197;-76
2022/09/02 07:00:12;;;;;;;1.90;1.27;;;19.70;82.10;;;;;;4943022;29;20191;-76
2022/09/02 07:02:38;;;;;;;1.75;1.00;;;19.80;82.10;;;;;;4943136;29;20182;-78
2022/09/02 07:05:13;;;;;;;1.40;1.08;;;19.80;82.00;;;;;;4946670;29;20188;-76
2022/09/02 07:07:40;;;;;;;1.20;1.08;;;19.90;82.10;;;;;;4941861;29;20212;-76
2022/09/02 07:10:09;;;;;;;2.25;1.10;;;19.90;81.90;;;;;;4944615;29;20185;-75
2022/09/02 07:12:39;;;;;;;2.95;1.30;;;20.00;81.90;;;;;;4963607;29;20186;-75
2022/09/02 07:15:06;;;;;;;3.08;1.25;;;20.10;81.90;;;;;;4941180;29;20500;-76
2022/09/02 07:17:33;;;;;;;1.42;1.30;;;20.10;81.90;;;;;;4942721;29;20181;-76
2022/09/02 07:19:59;;;;;;;1.88;1.20;;;20.20;82.00;;;;;;4944654;29;20174;-78
2022/09/02 07:22:26;;;;;;;1.67;1.20;;;20.20;82.10;;;;;;4958934;28;20237;-77
2022/09/02 07:24:57;;;;;;;1.45;1.15;;;20.30;82.10;;;;;;4942270;29;20189;-76
2022/09/02 07:27:22;;;;;;;1.30;1.20;;;20.30;82.10;;;;;;4955957;29;20165;-76
2022/09/02 07:29:48;;;;;;;1.90;1.08;;;20.40;82.00;;;;;;4940483;29;20274;-76
2022/09/02 07:32:18;;;;;;;2.17;1.17;;;20.40;81.90;;;;;;4938967;29;20165;-75
2022/09/02 07:34:44;;;;;;;3.53;1.17;;;20.50;81.90;;;;;;4958983;29;20181;-76
2022/09/02 07:37:10;;;;;;;1.73;1.30;;;20.50;81.70;;;;;;4938184;29;20220;-77
2022/09/02 07:39:35;;;;;;;1.60;1.30;;;20.60;81.60;;;;;;4956025;29;20201;-76
2022/09/02 07:42:04;;;;;;;1.30;1.20;;;20.70;81.70;;;;;;4949162;29;20192;-76
2022/09/02 07:44:31;;;;;;;2.25;1.20;;;20.70;81.40;;;;;;4955386;29;20227;-76
2022/09/02 07:46:56;;;;;;;2.78;1.13;;;20.80;81.30;;;;;;4962535;29;20191;-78
2022/09/02 07:49:26;;;;;;;2.65;1.38;;;20.90;81.30;;;;;;4955509;29;20216;-78
2022/09/02 07:51:52;;;;;;;2.30;1.15;;;20.90;80.90;;;;;;4943074;29;20207;-76
2022/09/02 07:54:21;;;;;;;2.05;1.20;;;21.00;81.00;;;;;;4953829;29;20212;-75
2022/09/02 07:56:49;;;;;;;1.30;1.10;;;21.10;81.10;;;;;;4956123;29;20173;-76
2022/09/02 07:59:16;;;;;;;1.55;1.10;;;21.20;80.80;;;;;;4938898;29;20185;-77
2022/09/02 08:01:44;;;;;;;1.80;1.20;;;21.30;80.90;;;;;;4938548;29;20182;-78
2022/09/02 08:04:10;;;;;;;1.17;0.98;;;21.30;80.60;;;;;;4952014;29;20256;-78
2022/09/02 08:06:36;;;;;;;1.98;0.90;;;21.40;80.40;;;;;;4940863;29;20228;-74
2022/09/02 08:09:12;;;;;;;1.88;1.45;;;21.50;80.30;;;;;;4955473;29;20247;-77
2022/09/02 08:11:39;;;;;;;1.40;1.05;;;21.60;79.80;;;;;;4946948;29;20185;-78
2022/09/02 08:14:10;;;;;;;1.77;1.10;;;21.60;79.70;;;;;;4936843;29;20516;-78
2022/09/02 08:16:37;;;;;;;1.30;1.08;;;21.70;79.30;;;;;;4940859;29;20198;-75
2022/09/02 08:19:04;;;;;;;1.58;1.00;;;21.70;78.70;;;;;;4944459;29;20180;-77
2022/09/02 08:21:35;;;;;;;1.70;1.20;;;21.80;79.00;;;;;;4941113;29;20206;-75
2022/09/02 08:24:01;;;;;;;1.15;1.05;;;21.90;79.00;;;;;;4933922;29;20193;-77
2022/09/02 08:26:27;;;;;;;1.40;1.05;;;22.00;79.00;;;;;;4945930;29;20192;-76
2022/09/02 08:28:56;;;;;;;1.15;0.98;;;22.00;78.90;;;;;;4940908;29;20218;-77
2022/09/02 08:31:22;;;;;;;1.90;1.00;;;22.10;78.70;;;;;;4947640;29;20197;-77
2022/09/02 08:33:52;;;;;;;1.20;1.10;;;22.20;78.40;;;;;;4935945;29;20177;-77
2022/09/02 08:36:19;;;;;;;1.27;1.13;;;22.20;78.00;;;;;;4944053;29;20173;-78
2022/09/02 08:38:46;;;;;;;1.98;1.00;;;22.30;78.00;;;;;;4959827;29;20224;-77
2022/09/02 08:41:22;;;;;;;1.10;1.00;;;22.40;78.10;;;;;;4928276;29;20205;-76
2022/09/02 08:43:50;;;;;;;1.30;1.10;;;22.50;77.00;;;;;;4929358;29;20185;-76
2022/09/02 08:46:24;;;;;;;1.40;1.05;;;22.50;77.00;;;;;;4941267;29;20175;-78
2022/09/02 08:49:09;;;;;;;1.13;0.90;;;22.60;75.70;;;;;;4950538;29;20223;-76
2022/09/02 08:51:37;;;;;;;1.30;1.00;;;22.70;74.70;;;;;;4949722;29;20177;-74
2022/09/02 08:54:21;;;;;;;1.00;0.88;;;22.80;76.10;;;;;;4952440;29;20189;-79
2022/09/02 08:56:50;;;;;;;1.52;1.00;;;22.90;75.30;;;;;;4960951;29;20174;-76
2022/09/02 08:59:19;;;;;;;1.77;0.95;;;23.00;76.20;;;;;;4946844;29;20182;-77
2022/09/02 09:01:50;;;;;;;2.05;1.20;;;23.00;75.70;;;;;;4937974;29;20205;-74
2022/09/02 09:04:17;;;;;;;1.55;1.10;;;23.10;75.50;;;;;;4961561;29;20190;-77
2022/09/02 09:07:11;;;;;;;1.17;1.02;;;23.20;74.80;;;;;;4963089;29;20174;-72
2022/09/02 09:09:58;;;;;;;1.48;1.20;;;23.30;74.10;;;;;;4948224;29;20205;-76
2022/09/02 09:12:36;;;;;;;1.80;1.10;;;23.40;73.70;;;;;;4959794;29;20173;-77
2022/09/02 09:15:21;;;;;;;2.22;0.90;;;23.60;74.20;;;;;;4955001;28;20213;-79
2022/09/02 09:17:50;;;;;;;1.08;0.93;;;23.70;73.90;;;;;;4932590;29;20182;-77
2022/09/02 09:20:25;;;;;;;1.33;1.00;;;23.80;73.20;;;;;;4955261;29;20272;-76
2022/09/02 09:22:59;;;;;;;1.75;1.08;;;23.90;72.20;;;;;;4945291;29;20206;-77
2022/09/02 09:25:29;;;;;;;1.98;0.90;;;24.00;71.70;;;;;;4964515;28;20181;-76
2022/09/02 09:28:01;;;;;;;1.58;1.08;;;24.10;72.60;;;;;;4968361;29;20213;-76
2022/09/02 09:30:28;;;;;;;0.90;0.80;;;24.20;71.60;;;;;;4968430;28;20265;-78
2022/09/02 09:33:00;;;;;;;2.08;1.10;;;24.30;71.80;;;;;;4943728;29;20169;-77
2022/09/02 09:35:48;;;;;;;1.52;1.10;;;24.40;70.40;;;;;;4960588;28;20207;-76
2022/09/02 09:38:13;;;;;;;3.58;1.02;;;24.50;67.80;;;;;;4945269;29;20264;-76
2022/09/02 09:40:39;;;;;;;1.33;1.00;;;24.50;70.50;;;;;;4966865;29;20177;-75
2022/09/02 09:43:05;;;;;;;1.08;0.93;;;24.60;70.60;;;;;;4951952;29;20174;-78
2022/09/02 09:45:41;;;;;;;1.48;1.10;;;24.70;70.30;;;;;;4941381;29;20177;-76
2022/09/02 09:48:18;;;;;;;1.73;1.05;;;24.80;69.80;;;;;;4942576;29;20228;-76
2022/09/02 09:50:46;;;;;;;1.15;0.90;;;24.90;66.80;;;;;;4947338;29;20181;-78
2022/09/02 09:53:23;;;;;;;1.05;0.90;;;24.90;69.00;;;;;;4944079;29;20280;-76
2022/09/02 09:55:56;;;;;;;4.50;1.08;;;25.10;67.50;;;;;;4958707;29;20208;-76
2022/09/02 09:58:29;;;;;;;1.08;0.80;;;25.20;68.60;;;;;;4930174;29;20242;-77
2022/09/02 10:00:59;;;;;;;3.42;1.00;;;25.40;67.00;;;;;;4940881;29;20197;-78
2022/09/02 10:03:29;;;;;;;1.38;1.00;;;25.90;66.40;;;;;;4942455;29;20209;-77
2022/09/02 10:06:23;;;;;;;1.30;0.93;;;26.40;64.10;;;;;;4947454;29;20252;-74
2022/09/02 10:08:55;;;;;;;0.85;0.73;;;27.00;61.70;;;;;;4961512;29;20215;-77
2022/09/02 10:11:28;;;;;;;1.67;0.90;;;27.50;62.20;;;;;;4949096;29;20182;-74
2022/09/02 10:14:00;;;;;;;0.90;0.75;;;27.90;58.50;;;;;;4959091;29;20199;-73
2022/09/02 10:17:02;;;;;;;2.50;0.88;;;28.30;59.20;;;;;;4942490;29;20300;-78
2022/09/02 10:19:57;;;;;;;2.25;0.80;;;28.60;54.50;;;;;;4959115;29;20253;-77
2022/09/02 10:22:51;;;;;;;1.13;0.80;;;29.00;57.20;;;;;;4937134;29;20193;-75
2022/09/02 10:25:29;;;;;;;0.90;0.70;;;29.20;56.20;;;;;;4952135;29;20258;-75
2022/09/02 10:28:22;;;;;;;1.33;0.90;;;29.40;56.30;;;;;;4938129;29;20213;-77
2022/09/02 10:30:58;;;;;;;1.23;0.98;;;29.60;54.80;;;;;;4959813;29;20209;-78
2022/09/02 10:33:33;;;;;;;1.20;1.00;;;29.80;50.50;;;;;;4961403;29;20176;-78
2022/09/02 10:36:12;;;;;;;1.27;0.82;;;29.80;53.30;;;;;;4960800;29;20264;-73
2022/09/02 10:38:46;;;;;;;2.00;0.80;;;29.80;53.40;;;;;;4955054;29;20182;-80
2022/09/02 10:41:33;;;;;;;1.45;1.10;;;29.80;51.90;;;;;;4946432;29;20181;-77
2022/09/02 10:44:04;;;;;;;1.27;0.73;;;29.80;51.00;;;;;;4938830;29;20190;-77
2022/09/02 10:46:42;;;;;;;2.05;1.05;;;29.60;52.50;;;;;;4961641;28;20205;-75
2022/09/02 10:49:44;;;;;;;1.70;1.20;;;29.60;52.60;;;;;;4957105;29;20208;-76
2022/09/02 10:52:44;;;;;;;1.70;1.13;;;29.60;51.60;;;;;;4950221;29;20197;-76
2022/09/02 10:55:38;;;;;;;1.08;0.88;;;29.60;49.50;;;;;;4941993;29;20225;-78
2022/09/02 10:58:13;;;;;;;1.42;1.00;;;29.60;50.60;;;;;;4923172;29;20181;-75
2022/09/02 11:00:43;;;;;;;1.40;0.90;;;29.60;51.50;;;;;;4936099;29;20201;-79
2022/09/02 11:03:13;;;;;;;0.90;0.80;;;29.60;50.10;;;;;;4956546;29;20197;-77
2022/09/02 11:05:51;;;;;;;1.80;0.82;;;29.60;49.40;;;;;;4956834;29;20209;-76
2022/09/02 11:08:45;;;;;;;1.63;0.95;;;29.60;49.30;;;;;;4942409;29;20197;-76
2022/09/02 11:11:33;;;;;;;1.35;1.00;;;29.70;48.60;;;;;;4940372;29;20283;-74
2022/09/02 11:14:08;;;;;;;2.15;0.75;;;29.80;49.30;;;;;;4928667;29;20161;-77
2022/09/02 11:16:40;;;;;;;3.22;1.00;;;29.90;46.50;;;;;;4939480;29;20215;-77
2022/09/02 11:19:24;;;;;;;1.08;0.80;;;30.00;48.50;;;;;;4936716;29;20196;-72
2022/09/02 11:21:56;;;;;;;1.00;0.75;;;30.00;48.00;;;;;;4947761;29;20185;-77
2022/09/02 11:24:30;;;;;;;1.92;1.00;;;30.00;48.00;;;;;;4940474;29;20197;-76
2022/09/02 11:27:17;;;;;;;1.38;1.02;;;30.10;48.80;;;;;;4939894;29;20176;-75
2022/09/02 11:30:07;;;;;;;1.05;0.80;;;30.20;47.70;;;;;;4943409;29;20326;-77
2022/09/02 11:32:44;;;;;;;1.33;1.00;;;30.20;46.80;;;;;;4959887;29;20185;-71
2022/09/02 11:35:26;;;;;;;1.10;0.90;;;30.30;47.80;;;;;;4962490;29;20201;-73
2022/09/02 11:38:09;;;;;;;1.08;0.80;;;30.30;46.30;;;;;;4958489;29;20181;-77
2022/09/02 11:41:05;;;;;;;1.13;0.90;;;30.20;48.00;;;;;;4946710;29;20196;-76
2022/09/02 11:43:34;;;;;;;1.63;1.00;;;30.10;44.90;;;;;;4939701;29;20238;-78
2022/09/02 11:46:17;;;;;;;1.50;0.80;;;30.10;48.10;;;;;;4956269;29;20177;-77
2022/09/02 11:48:54;;;;;;;1.55;0.82;;;30.10;47.60;;;;;;4955080;29;20219;-74
2022/09/02 11:51:39;;;;;;;1.00;0.90;;;30.00;48.10;;;;;;4939049;29;20333;-77
2022/09/02 11:54:08;;;;;;;2.55;1.00;;;29.90;47.00;;;;;;4954832;28;20204;-78
2022/09/02 11:56:42;;;;;;;1.40;1.02;;;29.80;47.90;;;;;;4944739;29;20225;-75
2022/09/02 11:59:19;;;;;;;1.10;0.85;;;29.70;46.40;;;;;;4941530;29;20200;-75
2022/09/02 12:01:54;;;;;;;1.10;1.00;;;29.70;47.50;;;;;;4961936;29;20212;-75
2022/09/02 12:04:25;;;;;;;1.33;0.90;;;29.70;48.30;;;;;;4941724;29;20208;-78
2022/09/02 12:07:06;;;;;;;2.03;1.10;;;29.80;48.60;;;;;;4958574;29;20377;-76
2022/09/02 12:09:45;;;;;;;0.90;0.77;;;29.90;46.80;;;;;;4926152;29;20289;-74
2022/09/02 12:12:36;;;;;;;1.05;0.85;;;30.00;46.90;;;;;;4936539;29;20173;-78
2022/09/02 12:15:16;;;;;;;1.20;1.00;;;29.90;45.40;;;;;;4939794;29;20174;-73
2022/09/02 12:17:48;;;;;;;1.48;0.95;;;29.90;45.20;;;;;;4940673;29;20184;-77
2022/09/02 12:20:36;;;;;;;1.80;0.93;;;29.70;46.30;;;;;;4950529;28;20177;-76
2022/09/02 12:23:04;;;;;;;0.90;0.80;;;29.60;45.90;;;;;;4927181;29;20209;-78
2022/09/02 12:25:34;;;;;;;1.15;0.80;;;29.50;46.70;;;;;;4943784;29;20208;-78
2022/09/02 12:28:25;;;;;;;1.00;0.90;;;29.40;47.20;;;;;;4943011;29;20205;-74
2022/09/02 12:31:13;;;;;;;1.30;1.00;;;29.40;46.50;;;;;;4943294;29;20205;-77
2022/09/02 12:33:50;;;;;;;1.55;1.00;;;29.30;46.90;;;;;;4957228;29;20181;-77
2022/09/02 12:36:37;;;;;;;1.40;0.90;;;29.20;46.40;;;;;;4942487;29;20201;-77
2022/09/02 12:39:21;;;;;;;1.55;0.90;;;29.10;45.60;;;;;;4928587;29;20177;-77
2022/09/02 12:41:58;;;;;;;2.25;1.00;;;29.00;45.60;;;;;;4948448;29;20210;-78
2022/09/02 12:44:29;;;;;;;1.17;1.05;;;29.00;46.40;;;;;;4942782;29;20208;-77
2022/09/02 12:47:31;;;;;;;3.35;1.00;;;28.90;47.10;;;;;;4938888;29;20181;-77
2022/09/02 12:50:02;;;;;;;1.45;0.85;;;28.90;45.80;;;;;;4933394;29;20220;-78
2022/09/02 12:52:39;;;;;;;1.05;0.90;;;29.00;47.60;;;;;;4937972;29;20173;-77
2022/09/02 12:55:28;;;;;;;1.17;0.88;;;29.20;47.60;;;;;;4937820;29;20224;-76
2022/09/02 12:58:18;;;;;;;1.58;0.77;;;29.50;47.50;;;;;;4935023;29;20264;-78
2022/09/02 13:01:04;;;;;;;1.40;0.95;;;29.80;46.50;;;;;;4938769;29;20216;-77
2022/09/02 13:03:36;;;;;;;1.38;0.80;;;30.10;46.20;;;;;;4940974;29;20232;-78
2022/09/02 13:06:35;;;;;;;1.35;0.80;;;30.40;46.70;;;;;;4940823;29;20181;-76
2022/09/02 13:09:03;;;;;;;1.40;0.88;;;30.60;46.50;;;;;;4955763;28;20209;-74
2022/09/02 13:11:58;;;;;;;1.00;0.90;;;30.90;47.00;;;;;;4958829;29;20181;-75
2022/09/02 13:14:38;;;;;;;0.88;0.68;;;31.20;44.10;;;;;;4955631;29;20239;-76
2022/09/02 13:17:30;;;;;;;2.47;1.10;;;31.30;45.60;;;;;;4946567;29;20210;-75
2022/09/02 13:20:41;;;;;;;1.15;0.90;;;31.50;42.60;;;;;;4941907;29;20165;-76